createdAt,value
2022-08-17T00:02:18.094Z,44.30
2022-08-17T00:05:43.795Z,36.83
2022-08-17T00:08:53.047Z,36.40
2022-08-17T00:12:35.068Z,35.20
2022-08-17T00:19:01.650Z,42.95
2022-08-17T00:22:31.233Z,41.70
2022-08-17T00:25:22.436Z,42.75
2022-08-17T00:28:27.690Z,45.38
2022-08-17T00:31:38.147Z,46.17
2022-08-17T00:34:42.299Z,43.55
2022-08-17T00:40:59.545Z,37.22
2022-08-17T00:44:06.742Z,43.83
2022-08-17T00:47:10.914Z,49.53
2022-08-17T00:50:19.563Z,48.22
2022-08-17T00:53:29.331Z,43.42
2022-08-17T00:56:41.758Z,49.58
2022-08-17T01:00:01.881Z,51.53
2022-08-17T01:03:16.890Z,45.92
2022-08-17T01:06:24.481Z,51.00
2022-08-17T01:09:30.028Z,51.47
2022-08-17T01:12:37.014Z,53.22
2022-08-17T01:15:59.103Z,44.30
2022-08-17T01:19:16.377Z,43.72
2022-08-17T01:22:26.768Z,44.47
2022-08-17T01:25:31.870Z,45.38
2022-08-17T01:28:54.926Z,46.25
2022-08-17T01:32:04.780Z,45.42
2022-08-17T01:35:09.338Z,44.00
2022-08-17T01:38:13.712Z,40.75
2022-08-17T01:41:21.952Z,38.60
2022-08-17T01:44:27.715Z,43.25
2022-08-17T01:47:32.651Z,39.22
2022-08-17T01:50:44.586Z,37.30
2022-08-17T01:53:57.478Z,35.88
2022-08-17T01:57:02.049Z,36.80
2022-08-17T02:00:11.871Z,38.50
2022-08-17T02:03:16.255Z,42.80
2022-08-17T02:06:27.151Z,39.28
2022-08-17T02:09:32.677Z,47.72
2022-08-17T02:12:39.879Z,47.28
2022-08-17T02:15:44.866Z,44.17
2022-08-17T02:18:49.410Z,40.63
2022-08-17T02:21:54.792Z,40.00
2022-08-17T02:25:02.343Z,35.05
2022-08-17T02:28:06.914Z,38.63
2022-08-17T02:31:12.912Z,38.13
2022-08-17T02:34:17.409Z,43.05
2022-08-17T02:37:21.830Z,44.17
2022-08-17T02:40:36.389Z,37.35
2022-08-17T02:43:41.818Z,39.38
2022-08-17T02:46:46.214Z,38.15
2022-08-17T02:49:55.606Z,39.53
2022-08-17T02:53:02.387Z,37.60
2022-08-17T02:56:07.466Z,40.72
2022-08-17T02:59:11.600Z,36.85
2022-08-17T03:02:16.285Z,35.42
2022-08-17T03:05:25.344Z,35.78
2022-08-17T03:08:30.384Z,35.35
2022-08-17T03:11:35.424Z,34.25
2022-08-17T03:14:43.051Z,34.28
2022-08-17T03:17:47.648Z,36.90
2022-08-17T03:20:55.638Z,31.13
2022-08-17T03:23:59.899Z,33.65
2022-08-17T03:27:04.483Z,32.63
2022-08-17T03:30:10.797Z,30.20
2022-08-17T03:33:16.254Z,31.67
2022-08-17T03:36:21.127Z,33.00
2022-08-17T03:39:25.582Z,36.13
2022-08-17T03:42:31.940Z,34.65
2022-08-17T03:45:56.726Z,31.58
2022-08-17T03:49:19.625Z,28.67
2022-08-17T03:52:42.481Z,29.30
2022-08-17T03:56:05.139Z,31.38
2022-08-17T03:59:22.692Z,32.10
2022-08-17T04:02:32.979Z,33.10
2022-08-17T04:05:37.166Z,31.55
2022-08-17T04:08:41.340Z,30.13
2022-08-17T04:11:45.757Z,31.35
2022-08-17T04:14:53.107Z,30.35
2022-08-17T04:17:59.297Z,31.10
2022-08-17T04:21:04.119Z,33.50
2022-08-17T04:24:08.653Z,31.63
2022-08-17T04:27:12.743Z,33.30
2022-08-17T04:30:17.308Z,32.13
2022-08-17T04:33:25.768Z,32.03
2022-08-17T04:36:30.282Z,31.33
2022-08-17T04:39:34.781Z,27.10
2022-08-17T04:42:39.028Z,26.10
2022-08-17T04:45:55.596Z,22.02
2022-08-17T04:49:05.864Z,21.00
2022-08-17T04:52:10.912Z,20.05
2022-08-17T04:55:35.865Z,21.42
2022-08-17T04:58:40.174Z,19.42
2022-08-17T05:01:47.504Z,20.27
2022-08-17T05:04:52.202Z,21.05
2022-08-17T05:08:00.019Z,20.75
2022-08-17T05:11:05.448Z,19.58
2022-08-17T05:14:10.237Z,19.98
2022-08-17T05:20:18.787Z,22.42
2022-08-17T05:23:27.105Z,22.75
2022-08-17T05:26:42.241Z,20.20
2022-08-17T05:29:47.027Z,19.77
2022-08-17T05:33:02.031Z,20.17
2022-08-17T05:36:10.904Z,17.80
2022-08-17T05:39:35.313Z,20.98
2022-08-17T05:42:39.668Z,22.90
2022-08-17T05:46:16.324Z,23.13
2022-08-17T05:49:28.020Z,25.05
2022-08-17T05:52:44.715Z,26.13
2022-08-17T05:56:00.072Z,26.15
2022-08-17T05:59:49.951Z,30.23
2022-08-17T06:04:00.609Z,26.88
2022-08-17T06:07:40.494Z,30.13
2022-08-17T06:11:06.942Z,34.05
2022-08-17T06:14:38.319Z,34.85
2022-08-17T06:17:43.789Z,33.30
2022-08-17T06:21:00.394Z,32.08
2022-08-17T06:24:34.877Z,32.25
2022-08-17T06:27:58.701Z,38.58
2022-08-17T06:31:14.872Z,37.70
2022-08-17T06:34:20.864Z,40.97
2022-08-17T06:38:10.384Z,41.00
2022-08-17T06:41:49.547Z,43.05
2022-08-17T06:45:15.333Z,40.38
2022-08-17T06:48:54.363Z,42.88
2022-08-17T06:52:45.457Z,43.35
2022-08-17T06:56:05.041Z,45.42
2022-08-17T06:59:20.428Z,44.50
2022-08-17T07:03:07.981Z,46.33
2022-08-17T07:06:27.065Z,47.20
2022-08-17T07:09:37.279Z,48.00
2022-08-17T07:12:44.673Z,46.65
2022-08-17T07:15:56.443Z,44.17
2022-08-17T07:19:01.305Z,40.75
2022-08-17T07:22:53.548Z,34.28
2022-08-17T07:26:06.787Z,37.75
2022-08-17T07:29:16.459Z,37.77
2022-08-17T07:32:31.474Z,37.60
2022-08-17T07:35:44.274Z,37.47
2022-08-17T07:38:58.118Z,35.80
2022-08-17T07:42:04.500Z,37.40
2022-08-17T07:45:29.292Z,35.53
2022-08-17T07:48:38.102Z,35.45
2022-08-17T07:51:48.097Z,34.35
2022-08-17T07:54:52.809Z,32.67
2022-08-17T07:57:59.067Z,34.67
2022-08-17T08:01:18.429Z,30.70
2022-08-17T08:08:06.177Z,32.65
2022-08-17T08:11:27.976Z,28.55
2022-08-17T08:14:38.617Z,30.63
2022-08-17T08:18:06.269Z,27.10
2022-08-17T08:21:28.963Z,25.00
2022-08-17T08:24:56.293Z,21.90
2022-08-17T08:28:20.135Z,21.55
2022-08-17T08:32:22.148Z,20.45
2022-08-17T08:35:53.641Z,20.83
2022-08-17T08:39:11.864Z,18.50
2022-08-17T08:42:49.626Z,18.05
2022-08-17T08:46:43.983Z,19.40
2022-08-17T08:50:07.481Z,16.17
2022-08-17T08:53:48.960Z,18.30
2022-08-17T09:04:24.148Z,17.10
2022-08-17T09:08:26.710Z,18.45
2022-08-17T09:12:16.848Z,17.80
2022-08-17T09:15:46.146Z,13.77
2022-08-17T09:19:03.583Z,13.95
2022-08-17T09:22:34.831Z,13.85
2022-08-17T09:26:07.780Z,14.85
2022-08-17T09:29:16.327Z,12.98
2022-08-17T09:32:55.302Z,13.52
2022-08-17T09:36:31.155Z,14.88
2022-08-17T09:40:27.080Z,12.05
2022-08-17T09:43:53.611Z,12.13
2022-08-17T09:47:46.679Z,10.40
2022-08-17T09:51:07.049Z,8.05
2022-08-17T09:54:38.553Z,7.55
2022-08-17T09:58:34.762Z,7.25
2022-08-17T10:05:37.374Z,7.35
2022-08-17T10:09:26.428Z,5.82
2022-08-17T10:12:50.440Z,5.00
2022-08-17T10:16:32.174Z,4.45
2022-08-17T10:19:46.326Z,5.35
2022-08-17T10:23:26.947Z,6.47
2022-08-17T10:26:40.439Z,5.65
2022-08-17T10:30:05.183Z,5.85
2022-08-17T10:33:23.718Z,7.00
2022-08-17T10:36:54.694Z,8.90
2022-08-17T10:40:26.471Z,7.65
2022-08-17T10:44:37.175Z,7.57
2022-08-17T10:47:55.590Z,6.18
2022-08-17T10:51:06.084Z,8.40
2022-08-17T10:54:25.667Z,7.13
2022-08-17T10:57:30.119Z,7.18
2022-08-17T11:00:43.589Z,6.80
2022-08-17T11:03:55.896Z,6.78
2022-08-17T11:07:03.376Z,7.10
2022-08-17T11:10:32.403Z,6.70
2022-08-17T11:14:06.470Z,6.43
2022-08-17T11:17:31.790Z,6.40
2022-08-17T11:21:09.671Z,5.68
2022-08-17T11:24:34.802Z,5.97
2022-08-17T11:27:39.505Z,6.90
2022-08-17T11:31:03.462Z,6.47
2022-08-17T11:34:26.442Z,5.47
2022-08-17T11:37:40.697Z,7.75
2022-08-17T11:40:54.125Z,6.57
2022-08-17T11:44:37.744Z,7.60
2022-08-17T11:48:27.079Z,6.75
2022-08-17T11:52:01.437Z,7.18
2022-08-17T11:55:34.138Z,6.57
2022-08-17T11:58:44.794Z,7.20
2022-08-17T12:01:57.239Z,6.40
2022-08-17T12:05:16.928Z,6.28
2022-08-17T12:08:23.088Z,6.70
2022-08-17T12:12:11.965Z,6.90
2022-08-17T12:15:28.589Z,6.00
2022-08-17T12:18:38.342Z,7.07
2022-08-17T12:22:11.525Z,7.55
2022-08-17T12:25:36.808Z,7.28
2022-08-17T12:28:47.495Z,7.03
2022-08-17T12:31:54.299Z,7.07
2022-08-17T12:34:59.557Z,6.97
2022-08-17T12:38:32.163Z,6.97
2022-08-17T12:41:42.249Z,6.95
2022-08-17T12:44:50.734Z,8.07
2022-08-17T12:48:21.467Z,7.00
2022-08-17T12:51:26.238Z,6.50
2022-08-17T12:54:54.672Z,7.80
2022-08-17T12:57:59.798Z,7.57
2022-08-17T13:01:15.117Z,6.82
2022-08-17T13:04:20.632Z,6.63
2022-08-17T13:07:33.024Z,7.03
2022-08-17T13:10:38.076Z,6.95
2022-08-17T13:13:56.030Z,7.35
2022-08-17T13:17:06.273Z,6.40
2022-08-17T13:20:15.118Z,7.05
2022-08-17T13:23:21.167Z,7.55
2022-08-17T13:26:40.405Z,6.90
2022-08-17T13:29:45.193Z,6.50
2022-08-17T13:32:57.599Z,7.15
2022-08-17T13:36:09.359Z,6.10
2022-08-17T13:39:24.159Z,7.25
2022-08-17T13:42:51.467Z,6.38
2022-08-17T13:46:10.415Z,6.82
2022-08-17T13:49:15.441Z,6.13
2022-08-17T13:52:43.754Z,6.38
2022-08-17T13:55:57.420Z,7.10
2022-08-17T13:59:16.672Z,7.07
2022-08-17T14:02:40.320Z,8.70
2022-08-17T14:05:46.041Z,6.57
2022-08-17T14:08:54.157Z,6.88
2022-08-17T14:12:00.357Z,7.63
2022-08-17T14:15:05.915Z,7.68
2022-08-17T14:18:10.724Z,7.63
2022-08-17T14:21:15.262Z,8.27
2022-08-17T14:24:30.185Z,8.38
2022-08-17T14:27:41.837Z,8.50
2022-08-17T14:30:57.031Z,7.47
2022-08-17T14:34:01.405Z,7.80
2022-08-17T14:37:05.844Z,7.93
2022-08-17T14:40:13.162Z,6.97
2022-08-17T14:43:18.516Z,7.82
2022-08-17T14:46:23.098Z,7.35
2022-08-17T14:49:28.098Z,8.40
2022-08-17T14:52:32.748Z,7.63
2022-08-17T14:55:40.735Z,7.18
2022-08-17T14:58:45.793Z,7.60
2022-08-17T15:01:50.248Z,8.05
2022-08-17T15:04:59.426Z,8.00
2022-08-17T15:08:05.533Z,7.22
2022-08-17T15:11:11.898Z,8.27
2022-08-17T15:14:18.888Z,7.70
2022-08-17T15:17:23.384Z,6.63
2022-08-17T15:20:29.990Z,6.85
2022-08-17T15:23:34.548Z,7.15
2022-08-17T15:26:39.148Z,7.55
2022-08-17T15:29:43.631Z,7.35
2022-08-17T15:32:51.247Z,7.82
2022-08-17T15:36:04.792Z,7.60
2022-08-17T15:39:09.169Z,7.82
2022-08-17T15:42:13.627Z,8.00
2022-08-17T15:45:24.933Z,7.85
2022-08-17T15:48:43.744Z,8.23
2022-08-17T15:51:48.212Z,7.82
2022-08-17T15:54:59.197Z,8.80
2022-08-17T15:58:03.740Z,9.35
2022-08-17T16:01:18.211Z,8.52
2022-08-17T16:07:37.705Z,9.43
2022-08-17T16:10:42.593Z,9.48
2022-08-17T16:13:54.663Z,9.35
2022-08-17T16:17:00.662Z,8.65
2022-08-17T16:20:06.010Z,9.73
2022-08-17T16:23:15.071Z,9.18
2022-08-17T16:26:23.386Z,9.82
2022-08-17T16:29:28.047Z,10.27
2022-08-17T16:32:32.986Z,8.43
2022-08-17T16:35:37.629Z,9.48
2022-08-17T16:38:42.125Z,9.07
2022-08-17T16:41:46.463Z,8.80
2022-08-17T16:44:59.609Z,9.23
2022-08-17T16:48:04.539Z,9.52
2022-08-17T16:51:08.626Z,9.13
2022-08-17T16:54:17.586Z,9.90
2022-08-17T16:57:25.229Z,10.57
2022-08-17T17:00:30.036Z,10.57
2022-08-17T17:03:37.262Z,11.25
2022-08-17T17:07:05.393Z,10.65
2022-08-17T17:10:53.059Z,10.35
2022-08-17T17:14:05.132Z,11.63
2022-08-17T17:17:32.046Z,9.93
2022-08-17T17:20:56.339Z,10.73
2022-08-17T17:24:13.186Z,10.75
2022-08-17T17:27:32.319Z,11.60
2022-08-17T17:30:43.153Z,10.82
2022-08-17T17:33:52.485Z,10.30
2022-08-17T17:37:05.857Z,10.40
2022-08-17T17:40:25.225Z,11.35
2022-08-17T17:43:39.940Z,11.60
2022-08-17T17:47:00.875Z,10.77
2022-08-17T17:50:08.443Z,11.85
2022-08-17T17:53:35.063Z,10.82
2022-08-17T17:57:08.347Z,11.55
2022-08-17T18:00:51.172Z,9.85
2022-08-17T18:04:29.051Z,10.38
2022-08-17T18:07:55.436Z,10.57
2022-08-17T18:11:23.963Z,11.27
2022-08-17T18:15:06.226Z,11.55
2022-08-17T18:18:14.889Z,13.90
2022-08-17T18:21:35.217Z,11.98
2022-08-17T18:24:44.945Z,13.75
2022-08-17T18:27:52.449Z,13.45
2022-08-17T18:31:19.114Z,14.27
2022-08-17T18:34:47.235Z,14.88
2022-08-17T18:37:57.757Z,15.40
2022-08-17T18:41:20.385Z,15.30
2022-08-17T18:44:55.170Z,14.77
2022-08-17T18:48:00.708Z,16.08
2022-08-17T18:51:41.630Z,15.55
2022-08-17T18:55:13.118Z,16.30
2022-08-17T18:58:24.828Z,15.90
2022-08-17T19:02:00.004Z,16.73
2022-08-17T19:05:13.616Z,16.77
2022-08-17T19:08:29.071Z,19.40
2022-08-17T19:11:35.782Z,21.10
2022-08-17T19:14:41.345Z,23.60
2022-08-17T19:18:31.795Z,14.23
2022-08-17T19:22:00.214Z,10.60
2022-08-17T19:25:17.274Z,8.10
2022-08-17T19:28:36.894Z,10.95
2022-08-17T19:31:41.743Z,13.30
2022-08-17T19:34:46.626Z,15.60
2022-08-17T19:38:15.437Z,14.00
2022-08-17T19:41:29.448Z,11.05
2022-08-17T19:44:37.666Z,7.45
2022-08-17T19:48:14.931Z,9.98
2022-08-17T19:51:37.684Z,12.35
2022-08-17T19:55:08.946Z,15.73
2022-08-17T19:58:48.815Z,18.52
2022-08-17T20:02:48.456Z,20.63
2022-08-17T20:06:12.617Z,23.42
2022-08-17T20:09:42.033Z,25.13
2022-08-17T20:12:51.807Z,22.95
2022-08-17T20:15:56.403Z,23.83
2022-08-17T20:19:28.358Z,25.92
2022-08-17T20:22:52.374Z,28.50
2022-08-17T20:26:21.023Z,30.98
2022-08-17T20:29:49.276Z,31.15
2022-08-17T20:32:57.337Z,34.05
2022-08-17T20:36:14.177Z,34.22
2022-08-17T20:40:06.364Z,34.30
2022-08-17T20:43:35.149Z,36.33
2022-08-17T20:46:57.006Z,34.55
2022-08-17T20:50:13.876Z,34.15
2022-08-17T20:53:49.348Z,34.95
2022-08-17T20:56:57.311Z,37.47
2022-08-17T21:00:06.635Z,34.35
2022-08-17T21:03:22.827Z,36.63
2022-08-17T21:06:28.372Z,37.72
2022-08-17T21:09:32.777Z,38.78
2022-08-17T21:13:04.684Z,39.38
2022-08-17T21:16:35.306Z,43.38
2022-08-17T21:20:17.427Z,42.72
2022-08-17T21:23:58.541Z,46.38
2022-08-17T21:27:39.938Z,44.05
2022-08-17T21:30:54.823Z,46.20
2022-08-17T21:34:26.887Z,45.10
2022-08-17T21:37:48.479Z,46.65
2022-08-17T21:40:53.846Z,47.67
2022-08-17T21:44:12.142Z,51.05
2022-08-17T21:47:27.274Z,50.80
2022-08-17T21:50:32.177Z,46.70
2022-08-17T21:53:42.143Z,47.67
2022-08-17T21:56:48.334Z,48.50
2022-08-17T22:00:01.124Z,49.15
2022-08-17T22:03:21.181Z,47.10
2022-08-17T22:06:29.742Z,46.20
2022-08-17T22:09:48.279Z,43.90
2022-08-17T22:13:17.816Z,43.25
2022-08-17T22:16:29.444Z,38.47
2022-08-17T22:19:36.830Z,42.92
2022-08-17T22:23:08.467Z,37.80
2022-08-17T22:26:16.448Z,35.67
2022-08-17T22:29:44.054Z,31.27
2022-08-17T22:32:49.876Z,30.27
2022-08-17T22:36:34.516Z,31.38
2022-08-17T22:39:40.744Z,30.98
2022-08-17T22:42:47.421Z,31.75
2022-08-17T22:45:56.719Z,30.95
2022-08-17T22:49:01.009Z,28.65
2022-08-17T22:52:22.773Z,27.83
2022-08-17T22:55:49.518Z,27.92
2022-08-17T22:59:16.517Z,29.05
2022-08-17T23:02:27.805Z,29.52
2022-08-17T23:05:34.043Z,31.38
2022-08-17T23:08:50.226Z,31.98
2022-08-17T23:11:58.511Z,31.20
2022-08-17T23:15:03.733Z,30.20
2022-08-17T23:18:08.188Z,29.55
2022-08-17T23:21:13.492Z,29.83
2022-08-17T23:24:26.899Z,32.35
2022-08-17T23:27:31.737Z,31.70
2022-08-17T23:30:44.533Z,31.40
2022-08-17T23:33:49.638Z,32.13
2022-08-17T23:36:55.510Z,30.98
2022-08-17T23:40:00.341Z,34.55
2022-08-17T23:43:11.414Z,30.83
2022-08-17T23:49:37.548Z,31.17
2022-08-17T23:52:43.837Z,28.02
2022-08-17T23:55:48.700Z,30.02
2022-08-17T23:59:13.571Z,29.10
